Time;durP1;ratioP1;P1;durP2;ratioP2;P2;SDS_P1;SDS_P2;PMS_P1;PMS_P2;Temp;Humidity;BMP_temperature;BMP_pressure;BME280_temperature;BME280_humidity;BME280_pressure;Samples;Min_cycle;Max_cycle;Signal;HPM_P1;HPM_P2
2022/07/15 00:00:42;;;;;;;1999.90;999.90;;;;;;;17.73;56.68;99650.16;8271639;28;20033;-77
2022/07/15 00:05:09;;;;;;;1999.90;999.90;;;;;;;17.67;57.63;99659.03;8304752;28;20139;-77
2022/07/15 00:13:51;;;;;;;1999.90;999.90;;;;;;;17.35;60.14;99661.72;8290597;28;20289;-77
2022/07/15 00:17:53;;;;;;;1999.90;999.90;;;;;;;17.20;60.29;99663.84;8303579;28;20442;-77
2022/07/15 00:21:55;;;;;;;1999.90;999.90;;;;;;;17.16;60.42;99664.84;8310127;28;20072;-76
2022/07/15 00:25:56;;;;;;;1999.90;999.90;;;;;;;17.14;60.26;99666.63;8283719;28;20068;-77
2022/07/15 00:29:58;;;;;;;1999.90;999.90;;;;;;;17.04;60.92;99654.66;8267407;28;20389;-77
2022/07/15 00:33:59;;;;;;;1999.90;999.90;;;;;;;17.07;61.27;99657.22;8310088;28;20122;-77
2022/07/15 00:38:01;;;;;;;1999.90;999.90;;;;;;;17.02;62.00;99656.47;8289344;28;20044;-77
2022/07/15 00:42:03;;;;;;;1999.90;999.90;;;;;;;17.00;61.69;99660.03;8288054;28;20124;-77
2022/07/15 00:46:05;;;;;;;1999.90;999.90;;;;;;;16.87;61.48;99652.47;8284867;28;20054;-77
2022/07/15 00:50:07;;;;;;;1999.90;999.90;;;;;;;16.76;62.37;99651.91;8273937;28;20084;-77
2022/07/15 00:54:10;;;;;;;1999.90;999.90;;;;;;;16.73;62.90;99653.75;8292921;28;20037;-77
2022/07/15 00:58:21;;;;;;;1999.90;999.90;;;;;;;16.65;63.59;99651.25;8286760;28;20042;-77
2022/07/15 01:02:23;;;;;;;1999.90;999.90;;;;;;;16.57;64.17;99651.47;8287266;28;20838;-77
2022/07/15 01:06:26;;;;;;;1999.90;999.90;;;;;;;16.47;64.27;99649.09;8290252;28;20037;-77
2022/07/15 01:10:28;;;;;;;1999.90;999.90;;;;;;;16.37;64.43;99655.47;8306207;28;20034;-77
2022/07/15 01:14:29;;;;;;;1999.90;999.90;;;;;;;16.31;65.31;99654.69;8305089;28;20065;-77
2022/07/15 01:18:31;;;;;;;1999.90;999.90;;;;;;;16.11;65.79;99656.91;8289658;28;20104;-76
2022/07/15 01:22:33;;;;;;;1999.90;999.90;;;;;;;15.95;66.55;99648.53;8288029;28;20490;-77
2022/07/15 01:26:35;;;;;;;1999.90;999.90;;;;;;;15.94;66.54;99654.66;8309390;28;20083;-76
2022/07/15 01:30:36;;;;;;;1999.90;999.90;;;;;;;15.87;66.01;99663.56;8294780;28;20048;-76
2022/07/15 01:34:38;;;;;;;1999.90;999.90;;;;;;;15.86;66.32;99666.22;8294673;28;20144;-77
2022/07/15 01:38:39;;;;;;;1999.90;999.90;;;;;;;15.79;67.17;99668.09;8295528;28;20307;-77
2022/07/15 01:42:51;;;;;;;1999.90;999.90;;;;;;;15.67;67.32;99666.63;8293844;28;20119;-77
2022/07/15 01:46:53;;;;;;;1999.90;999.90;;;;;;;15.55;67.85;99663.34;8279680;28;20042;-77
2022/07/15 01:50:57;;;;;;;1999.90;999.90;;;;;;;15.42;67.99;99660.97;8290751;28;20038;-76
2022/07/15 01:54:59;;;;;;;1999.90;999.90;;;;;;;15.36;68.25;99675.94;8304615;28;20060;-77
2022/07/15 01:59:00;;;;;;;1999.90;999.90;;;;;;;15.29;68.56;99685.66;8305280;28;20529;-77
2022/07/15 02:03:01;;;;;;;1999.90;999.90;;;;;;;15.27;69.07;99687.44;8295545;28;20049;-77
2022/07/15 02:07:04;;;;;;;1999.90;999.90;;;;;;;15.25;69.86;99688.34;8290018;28;20049;-77
2022/07/15 02:11:07;;;;;;;1999.90;999.90;;;;;;;15.19;69.95;99683.22;8307499;28;20045;-77
2022/07/15 02:15:09;;;;;;;1999.90;999.90;;;;;;;15.17;69.78;99679.78;8302482;28;20356;-76
2022/07/15 02:19:10;;;;;;;1999.90;999.90;;;;;;;15.09;70.06;99680.81;8310815;28;20421;-77
2022/07/15 02:23:12;;;;;;;1999.90;999.90;;;;;;;15.05;70.45;99680.84;8309962;28;20120;-77
2022/07/15 02:27:13;;;;;;;1999.90;999.90;;;;;;;14.88;70.96;99689.00;8309922;28;20550;-77
2022/07/15 02:31:15;;;;;;;1999.90;999.90;;;;;;;14.71;71.61;99691.88;8311604;28;20053;-77
2022/07/15 02:35:18;;;;;;;1999.90;999.90;;;;;;;14.63;72.07;99687.69;8308799;28;20373;-77
2022/07/15 02:39:20;;;;;;;1999.90;999.90;;;;;;;14.58;72.26;99690.38;8293401;28;20120;-77
2022/07/15 02:43:22;;;;;;;1999.90;999.90;;;;;;;14.51;72.75;99689.59;8310259;28;20088;-77
2022/07/15 02:47:23;;;;;;;1999.90;999.90;;;;;;;14.56;72.22;99693.91;8294137;28;20050;-77
2022/07/15 02:51:25;;;;;;;1999.90;999.90;;;;;;;14.49;72.24;99695.75;8281520;28;20037;-76
2022/07/15 02:55:26;;;;;;;1999.90;999.90;;;;;;;14.39;72.35;99697.63;8292778;28;20060;-76
2022/07/15 02:59:28;;;;;;;1999.90;999.90;;;;;;;14.32;72.84;99697.72;8294003;28;20434;-77
2022/07/15 03:03:29;;;;;;;1999.90;999.90;;;;;;;14.24;73.10;99700.44;8284608;28;20045;-78
2022/07/15 03:07:31;;;;;;;1999.90;999.90;;;;;;;14.15;74.09;99700.56;8287185;28;20046;-78
2022/07/15 03:11:32;;;;;;;1999.90;999.90;;;;;;;14.11;74.03;99699.75;8277121;28;20045;-78
2022/07/15 03:15:34;;;;;;;1999.90;999.90;;;;;;;14.04;74.57;99712.91;8273135;28;20053;-76
2022/07/15 03:19:36;;;;;;;1999.90;999.90;;;;;;;14.09;74.61;99708.47;8305410;28;20072;-78
2022/07/15 03:23:38;;;;;;;1999.90;999.90;;;;;;;14.09;74.38;99708.47;8294706;28;20403;-77
2022/07/15 03:27:39;;;;;;;1999.90;999.90;;;;;;;13.96;74.73;99713.00;8309896;28;20157;-77
2022/07/15 03:31:45;;;;;;;1999.90;999.90;;;;;;;13.94;75.29;99716.50;8298127;28;20129;-77
2022/07/15 03:35:47;;;;;;;1999.90;999.90;;;;;;;13.82;75.99;99713.19;8310396;28;20661;-77
2022/07/15 03:39:48;;;;;;;1999.90;999.90;;;;;;;13.74;75.88;99709.81;8308581;28;20057;-77
2022/07/15 03:43:50;;;;;;;1999.90;999.90;;;;;;;13.68;75.90;99714.25;8293498;28;20130;-77
2022/07/15 03:47:51;;;;;;;1999.90;999.90;;;;;;;13.62;76.05;99709.94;8305363;28;20077;-77
2022/07/15 03:51:53;;;;;;;1999.90;999.90;;;;;;;13.56;77.13;99717.84;8302348;28;20453;-77
2022/07/15 03:55:55;;;;;;;1999.90;999.90;;;;;;;13.56;77.33;99723.91;8313851;28;20046;-77
2022/07/15 03:59:56;;;;;;;1999.90;999.90;;;;;;;13.52;76.69;99722.25;8294515;28;20043;-77
2022/07/15 04:03:58;;;;;;;1999.90;999.90;;;;;;;13.53;76.91;99716.13;8279069;28;20144;-77
2022/07/15 04:07:59;;;;;;;1999.90;999.90;;;;;;;13.53;76.48;99726.56;8313940;28;20072;-77
2022/07/15 04:12:01;;;;;;;1999.90;999.90;;;;;;;13.53;76.63;99723.97;8285723;28;20723;-77
2022/07/15 04:16:03;;;;;;;1999.90;999.90;;;;;;;13.51;76.54;99732.69;8313090;28;20080;-76
2022/07/15 04:20:06;;;;;;;1999.90;999.90;;;;;;;13.57;77.50;99737.84;8293625;28;20112;-77
2022/07/15 04:24:07;;;;;;;1999.90;999.90;;;;;;;13.67;77.13;99729.03;8290532;28;20132;-77
2022/07/15 04:28:09;;;;;;;1999.90;999.90;;;;;;;13.76;77.36;99731.53;8291861;28;20041;-77
2022/07/15 04:32:10;;;;;;;1999.90;999.90;;;;;;;13.85;78.67;99730.56;8292116;28;20068;-77
2022/07/15 04:36:12;;;;;;;1999.90;999.90;;;;;;;13.91;77.32;99736.56;8256344;28;20145;-77
2022/07/15 04:40:13;;;;;;;1999.90;999.90;;;;;;;13.97;76.79;99737.34;8277224;28;20046;-77
2022/07/15 04:44:16;;;;;;;1999.90;999.90;;;;;;;14.07;76.76;99737.22;8276636;28;20062;-76
2022/07/15 04:52:43;;;;;;;1999.90;999.90;;;;;;;14.36;77.40;99736.84;8275394;28;20055;-77
2022/07/15 04:56:44;;;;;;;1999.90;999.90;;;;;;;14.53;78.11;99744.44;8277361;28;20046;-77
2022/07/15 05:00:46;;;;;;;1999.90;999.90;;;;;;;14.72;76.26;99740.69;8280472;28;20038;-77
2022/07/15 05:04:48;;;;;;;1999.90;999.90;;;;;;;14.96;75.31;99741.19;8279240;28;20046;-77
2022/07/15 05:08:50;;;;;;;1999.90;999.90;;;;;;;15.20;74.93;99745.97;8274818;28;20593;-77
2022/07/15 05:12:51;;;;;;;1999.90;999.90;;;;;;;15.50;73.27;99754.19;8276868;28;20053;-77
2022/07/15 05:16:53;;;;;;;1999.90;999.90;;;;;;;15.75;70.36;99757.22;8276919;28;20072;-77
2022/07/15 05:20:54;;;;;;;1999.90;999.90;;;;;;;16.02;69.95;99752.31;8275418;28;20038;-77
2022/07/15 05:24:56;;;;;;;1999.90;999.90;;;;;;;16.27;67.77;99757.88;8269964;28;20308;-77
2022/07/15 05:28:57;;;;;;;1999.90;999.90;;;;;;;16.55;65.44;99752.88;8276984;28;20049;-77
2022/07/15 05:32:59;;;;;;;1999.90;999.90;;;;;;;16.87;66.49;99751.28;8265797;28;20590;-77
2022/07/15 05:37:01;;;;;;;1999.90;999.90;;;;;;;17.15;64.42;99756.72;8308691;28;20045;-77
2022/07/15 05:41:03;;;;;;;1999.90;999.90;;;;;;;17.30;62.50;99760.72;8273623;28;20041;-77
2022/07/15 05:45:06;;;;;;;1999.90;999.90;;;;;;;17.42;62.82;99765.66;8289103;28;20140;-77
2022/07/15 05:49:07;;;;;;;1999.90;999.90;;;;;;;17.48;61.40;99760.25;8294414;28;20053;-76
2022/07/15 05:53:08;;;;;;;1999.90;999.90;;;;;;;17.58;60.83;99772.19;8309228;28;20192;-77
2022/07/15 05:57:11;;;;;;;;;;;;;;;17.63;62.79;99770.34;8289792;28;20423;-76
2022/07/15 06:01:12;;;;;;;1999.90;999.90;;;;;;;17.92;60.74;99779.19;8296420;28;19925;-77
2022/07/15 06:05:14;;;;;;;1999.90;999.90;;;;;;;18.15;59.39;99783.81;8292582;28;20510;-77
2022/07/15 06:09:16;;;;;;;1999.90;999.90;;;;;;;18.15;58.62;99774.16;8292460;28;20045;-77
2022/07/15 06:13:19;;;;;;;1999.90;999.90;;;;;;;18.65;58.36;99777.91;8307751;28;20042;-77
2022/07/15 06:17:21;;;;;;;1999.90;999.90;;;;;;;19.36;55.97;99778.25;8304162;28;20057;-76
2022/07/15 06:21:22;;;;;;;1999.90;999.90;;;;;;;20.05;54.14;99769.66;8285302;28;20078;-77
2022/07/15 06:25:24;;;;;;;1999.90;999.90;;;;;;;20.80;51.19;99775.56;8271766;28;20581;-76
2022/07/15 06:29:25;;;;;;;1999.90;999.90;;;;;;;20.88;49.65;99763.84;8292733;28;20669;-77
2022/07/15 06:33:27;;;;;;;1999.90;999.90;;;;;;;21.02;49.81;99767.66;8291598;28;20092;-76
2022/07/15 06:37:28;;;;;;;1999.90;999.90;;;;;;;21.86;48.22;99763.19;8305952;28;20128;-77
2022/07/15 06:41:31;;;;;;;1999.90;999.90;;;;;;;22.22;46.98;99764.19;8288611;28;20125;-77
2022/07/15 06:45:32;;;;;;;1999.90;999.90;;;;;;;22.51;45.91;99767.28;8303446;28;20135;-77
2022/07/15 06:49:34;;;;;;;1999.90;999.90;;;;;;;22.79;45.11;99769.47;8304331;28;20362;-77
2022/07/15 06:53:36;;;;;;;1999.90;999.90;;;;;;;23.01;44.54;99758.72;8287781;28;20137;-76
2022/07/15 06:57:39;;;;;;;1999.90;999.90;;;;;;;22.98;44.54;99757.09;8270361;28;20173;-77
2022/07/15 07:01:41;;;;;;;1999.90;999.90;;;;;;;23.21;43.96;99762.09;8307373;28;20034;-77
2022/07/15 07:05:42;;;;;;;1999.90;999.90;;;;;;;23.40;43.68;99758.50;8298060;28;20072;-78
2022/07/15 07:09:44;;;;;;;1999.90;999.90;;;;;;;23.58;42.99;99754.94;8290323;28;20148;-77
2022/07/15 07:13:46;;;;;;;;;;;;;;;23.78;41.55;99762.72;8310955;28;20050;-77
2022/07/15 07:17:48;;;;;;;1999.90;999.90;;;;;;;23.95;41.92;99769.78;8308479;28;20313;-76
2022/07/15 07:21:49;;;;;;;1999.90;999.90;;;;;;;24.00;41.00;99764.22;8272763;28;20042;-76
2022/07/15 07:25:50;;;;;;;1999.90;999.90;;;;;;;24.04;40.52;99766.63;8276822;28;20052;-76
2022/07/15 07:29:52;;;;;;;1999.90;999.90;;;;;;;24.21;41.46;99768.38;8293990;28;20040;-76
2022/07/15 07:33:55;;;;;;;1999.90;999.90;;;;;;;24.31;40.58;99776.72;8284183;28;20050;-77
2022/07/15 07:37:57;;;;;;;1999.90;999.90;;;;;;;24.46;40.88;99780.34;8289728;28;20157;-77
2022/07/15 07:41:58;;;;;;;1999.90;999.90;;;;;;;24.64;40.55;99779.31;8312652;28;20107;-77
2022/07/15 07:46:00;;;;;;;1999.90;999.90;;;;;;;24.66;38.92;99774.78;8307885;28;20156;-77
2022/07/15 07:50:01;;;;;;;;;;;;;;;24.60;39.08;99765.38;8308092;28;20188;-77
2022/07/15 07:54:03;;;;;;;1999.90;999.90;;;;;;;24.80;39.65;99780.19;8278217;28;19979;-77
2022/07/15 07:58:05;;;;;;;;;;;;;;;24.76;38.88;99772.44;8296384;28;20050;-77
2022/07/15 08:02:06;;;;;;;;;;;;;;;25.10;38.81;99776.72;8292230;28;19929;-77
2022/07/15 08:06:08;;;;;;;1999.90;999.90;;;;;;;25.00;37.70;99773.75;8278416;28;19925;-76
2022/07/15 08:10:10;;;;;;;1999.90;999.90;;;;;;;25.00;38.67;99768.44;8308380;28;20049;-77
2022/07/15 08:14:12;;;;;;;1999.90;999.90;;;;;;;25.09;38.69;99772.34;8308830;28;20088;-77
2022/07/15 08:18:14;;;;;;;;;;;;;;;24.99;38.41;99775.56;8314297;28;20125;-77
2022/07/15 08:22:16;;;;;;;1999.90;999.90;;;;;;;24.71;39.25;99776.22;8286760;28;19929;-77
2022/07/15 08:26:23;;;;;;;1999.90;999.90;;;;;;;24.69;39.72;99769.28;8311489;28;20057;-78
2022/07/15 08:30:29;;;;;;;1999.90;999.90;;;;;;;24.89;39.06;99769.00;8288596;28;20543;-77
2022/07/15 08:34:31;;;;;;;1999.90;999.90;;;;;;;25.33;38.33;99773.59;8287851;28;20062;-78
2022/07/15 08:38:32;;;;;;;;;;;;;;;25.59;37.00;99764.91;8297726;28;20336;-76
2022/07/15 08:42:34;;;;;;;1999.90;999.90;;;;;;;25.89;37.69;99772.00;8307799;28;20011;-77
2022/07/15 08:46:36;;;;;;;1999.90;999.90;;;;;;;26.16;37.13;99777.41;8295615;28;20045;-77
2022/07/15 08:50:38;;;;;;;1999.90;999.90;;;;;;;26.28;36.23;99767.81;8294622;28;20057;-77
2022/07/15 08:54:41;;;;;;;1999.90;999.90;;;;;;;26.41;35.95;99772.31;8314043;28;20575;-76
2022/07/15 08:58:43;;;;;;;1999.90;999.90;;;;;;;26.52;35.15;99776.06;8278169;28;20049;-77
2022/07/15 09:03:04;;;;;;;1999.90;999.90;;;;;;;26.82;33.00;99776.78;8278075;28;20038;-77
2022/07/15 09:07:05;;;;;;;1999.90;999.90;;;;;;;26.79;31.79;99779.66;8312856;28;20209;-77
2022/07/15 09:11:08;;;;;;;;;;;;;;;26.77;32.32;99770.91;8299438;28;20068;-77
2022/07/15 09:15:28;;;;;;;1999.90;999.90;;;;;;;26.82;31.77;99773.25;8301780;28;20537;-77
2022/07/15 09:20:11;;;;;;;1999.90;999.90;;;;;;;26.92;32.63;99766.34;8303404;28;20049;-77
2022/07/15 09:24:18;;;;;;;1999.90;999.90;;;;;;;26.93;31.36;99766.28;8291944;28;20120;-77
2022/07/15 09:28:19;;;;;;;1999.90;999.90;;;;;;;26.92;32.11;99759.22;8270746;28;20128;-78
2022/07/15 09:36:54;;;;;;;1999.90;999.90;;;;;;;27.31;32.50;99754.91;8308473;28;20057;-77
2022/07/15 09:40:56;;;;;;;1999.90;999.90;;;;;;;26.96;32.70;99751.88;8307411;28;20077;-77
2022/07/15 09:45:17;;;;;;;;;;;;;;;27.03;31.77;99747.88;8303894;28;20097;-77
2022/07/15 09:49:24;;;;;;;1999.90;999.90;;;;;;;26.88;31.37;99746.19;8311158;28;19936;-77
2022/07/15 09:53:27;;;;;;;1999.90;999.90;;;;;;;26.08;32.24;99751.28;8288365;28;20049;-77
2022/07/15 09:57:29;;;;;;;1999.90;999.90;;;;;;;25.79;33.96;99738.94;8307955;28;20469;-77
2022/07/15 10:01:30;;;;;;;;;;;;;;;25.88;33.88;99752.53;8292244;28;20132;-77
2022/07/15 10:05:35;;;;;;;1999.90;999.90;;;;;;;25.49;33.32;99746.91;8292376;28;20000;-77
2022/07/15 10:09:37;;;;;;;1999.90;999.90;;;;;;;25.14;34.02;99743.72;8308196;28;21603;-77
2022/07/15 10:13:38;;;;;;;;;;;;;;;24.87;34.26;99740.81;8306931;28;20533;-77
2022/07/15 10:18:30;;;;;;;1999.90;999.90;;;;;;;24.75;35.54;99733.53;8299696;28;19921;-76
2022/07/15 10:22:40;;;;;;;1999.90;999.90;;;;;;;25.41;35.32;99723.47;8305453;28;20514;-77
2022/07/15 10:26:56;;;;;;;1999.90;999.90;;;;;;;26.06;33.04;99728.38;8304496;28;20069;-77
2022/07/15 10:31:25;;;;;;;1999.90;999.90;;;;;;;26.23;32.27;99728.19;8304645;28;20056;-78
2022/07/15 10:35:41;;;;;;;1999.90;999.90;;;;;;;26.07;33.10;99728.28;8298832;28;20700;-78
2022/07/15 10:39:46;;;;;;;1999.90;999.90;;;;;;;25.76;33.93;99721.34;8308408;28;20061;-77
2022/07/15 10:43:54;;;;;;;1999.90;999.90;;;;;;;26.17;33.07;99725.88;8311756;28;20124;-77
2022/07/15 10:48:27;;;;;;;1999.90;999.90;;;;;;;26.20;31.73;99725.69;8312234;28;20129;-77
2022/07/15 10:52:31;;;;;;;1999.90;999.90;;;;;;;25.86;32.90;99721.66;8306691;28;20084;-77
2022/07/15 10:56:35;;;;;;;1999.90;999.90;;;;;;;25.44;33.88;99723.28;8272605;28;20053;-77
2022/07/15 11:00:37;;;;;;;1999.90;999.90;;;;;;;25.47;32.88;99723.06;8289379;28;20076;-77
2022/07/15 11:04:39;;;;;;;1999.90;999.90;;;;;;;25.43;33.34;99713.59;8267794;28;20173;-77
2022/07/15 11:08:44;;;;;;;1999.90;999.90;;;;;;;25.45;32.37;99706.38;8288589;28;20778;-77
2022/07/15 11:12:48;;;;;;;1999.90;999.90;;;;;;;26.03;30.63;99713.47;8292820;28;20128;-77
2022/07/15 11:16:56;;;;;;;1999.90;999.90;;;;;;;26.45;28.96;99712.56;8283536;28;20477;-77
2022/07/15 11:20:58;;;;;;;1999.90;999.90;;;;;;;26.84;28.76;99705.56;8267552;28;20075;-76
2022/07/15 11:25:03;;;;;;;1999.90;999.90;;;;;;;26.46;29.34;99714.28;8291364;28;20489;-77
2022/07/15 11:29:05;;;;;;;1999.90;999.90;;;;;;;26.21;30.40;99714.09;8289427;28;20044;-77
2022/07/15 11:33:14;;;;;;;1999.90;999.90;;;;;;;26.46;28.82;99713.41;8297343;28;20061;-77
2022/07/15 11:37:18;;;;;;;1999.90;999.90;;;;;;;27.00;28.72;99700.09;8284091;28;20076;-77
2022/07/15 11:45:40;;;;;;;1999.90;999.90;;;;;;;27.03;29.05;99706.06;8280514;28;20051;-78
2022/07/15 11:49:43;;;;;;;1999.90;999.90;;;;;;;27.24;29.20;99694.91;8312143;28;20045;-77
2022/07/15 11:53:47;;;;;;;1999.90;999.90;;;;;;;27.62;28.92;99703.78;8292974;28;20041;-77
2022/07/15 11:57:51;;;;;;;1999.90;999.90;;;;;;;27.60;27.52;99691.53;8275802;28;20438;-77
2022/07/15 12:02:12;;;;;;;1999.90;999.90;;;;;;;27.83;27.21;99693.47;8288344;28;20045;-77
2022/07/15 12:06:19;;;;;;;1999.90;999.90;;;;;;;27.89;26.07;99689.50;8308914;28;20037;-77
2022/07/15 12:10:33;;;;;;;1999.90;999.90;;;;;;;27.88;25.99;99688.66;8307168;28;20049;-77
2022/07/15 12:14:36;;;;;;;1999.90;999.90;;;;;;;27.83;26.72;99685.47;8302253;28;20053;-78
2022/07/15 12:18:38;;;;;;;1999.90;999.90;;;;;;;27.92;26.83;99686.63;8268782;28;20065;-78
2022/07/15 12:23:07;;;;;;;1999.90;999.90;;;;;;;27.87;25.99;99673.59;8304434;28;20046;-79
2022/07/15 12:27:11;;;;;;;1999.90;999.90;;;;;;;27.81;26.92;99679.38;8286321;28;20054;-77
2022/07/15 12:31:23;;;;;;;1999.90;999.90;;;;;;;27.91;26.37;99669.75;8273905;28;20057;-77
2022/07/15 12:35:24;;;;;;;1999.90;999.90;;;;;;;28.35;27.47;99662.16;8270582;28;20466;-77
2022/07/15 12:39:28;;;;;;;1999.90;999.90;;;;;;;28.53;25.66;99669.69;8270692;28;20490;-78
2022/07/15 12:43:53;;;;;;;1999.90;999.90;;;;;;;28.54;25.86;99674.06;8254495;28;20037;-78
2022/07/15 12:47:58;;;;;;;1999.90;999.90;;;;;;;28.61;25.04;99669.13;8268039;28;20085;-77
2022/07/15 12:52:21;;;;;;;1999.90;999.90;;;;;;;28.73;26.10;99668.22;8270701;28;20056;-78
2022/07/15 12:56:23;;;;;;;1999.90;999.90;;;;;;;28.75;24.36;99666.28;8253232;28;20108;-78
2022/07/15 13:00:25;;;;;;;1999.90;999.90;;;;;;;28.57;25.23;99655.16;8270330;28;20152;-77
2022/07/15 13:04:27;;;;;;;1999.90;999.90;;;;;;;28.61;25.11;99671.81;8271914;28;20455;-77
2022/07/15 13:08:31;;;;;;;1999.90;999.90;;;;;;;28.74;25.30;99666.41;8280217;28;20078;-77
2022/07/15 13:12:32;;;;;;;1999.90;999.90;;;;;;;28.65;24.87;99665.25;8254270;28;20046;-76
2022/07/15 13:16:34;;;;;;;1999.90;999.90;;;;;;;28.37;25.03;99654.91;8276416;28;20150;-77
2022/07/15 13:20:36;;;;;;;1999.90;999.90;;;;;;;28.42;24.84;99644.75;8275530;28;20041;-77
2022/07/15 13:24:37;;;;;;;1999.90;999.90;;;;;;;28.53;25.71;99660.81;8274425;28;20050;-76
2022/07/15 13:28:39;;;;;;;1999.90;999.90;;;;;;;28.44;24.71;99666.84;8277847;28;20125;-77
2022/07/15 13:32:41;;;;;;;1999.90;999.90;;;;;;;28.41;25.06;99637.69;8268716;28;20418;-76
2022/07/15 13:36:43;;;;;;;1999.90;999.90;;;;;;;28.46;25.34;99640.88;8307018;28;20757;-76
2022/07/15 13:40:45;;;;;;;1999.90;999.90;;;;;;;28.55;24.68;99648.22;8276773;28;20701;-77
2022/07/15 13:44:46;;;;;;;1999.90;999.90;;;;;;;28.65;25.12;99649.22;8294490;28;20479;-77
2022/07/15 13:48:48;;;;;;;1999.90;999.90;;;;;;;28.64;25.40;99634.16;8284004;28;20096;-77
2022/07/15 13:52:51;;;;;;;1999.90;999.90;;;;;;;28.83;25.14;99626.44;8289124;28;20168;-78
2022/07/15 13:56:53;;;;;;;1999.90;999.90;;;;;;;28.80;24.42;99626.69;8276237;28;20045;-77
2022/07/15 14:00:58;;;;;;;1999.90;999.90;;;;;;;28.80;24.67;99626.69;8291358;28;20169;-77
2022/07/15 14:05:00;;;;;;;1999.90;999.90;;;;;;;28.86;24.93;99641.44;8294390;28;20045;-78
2022/07/15 14:09:01;;;;;;;1999.90;999.90;;;;;;;28.63;23.73;99642.28;8297704;28;20049;-77
2022/07/15 14:13:03;;;;;;;1999.90;999.90;;;;;;;28.73;24.57;99625.47;8294827;28;20049;-76
2022/07/15 14:17:05;;;;;;;1999.90;999.90;;;;;;;28.66;23.76;99632.22;8290523;28;20041;-77
2022/07/15 14:21:07;;;;;;;1999.90;999.90;;;;;;;28.70;24.76;99624.81;8288610;28;20526;-78
2022/07/15 14:25:09;;;;;;;1999.90;999.90;;;;;;;28.91;24.67;99628.59;8284660;28;20050;-77
2022/07/15 14:29:13;;;;;;;1999.90;999.90;;;;;;;28.97;24.66;99630.78;8300408;28;20107;-77
2022/07/15 14:33:14;;;;;;;1999.90;999.90;;;;;;;28.68;23.99;99622.25;8282475;28;20148;-77
2022/07/15 14:37:16;;;;;;;1999.90;999.90;;;;;;;28.80;25.09;99626.69;8284529;28;20172;-78
2022/07/15 14:41:38;;;;;;;1999.90;999.90;;;;;;;28.72;24.63;99618.38;8286418;28;20370;-77
2022/07/15 14:45:39;;;;;;;;;;;;;;;28.81;24.66;99608.81;8299471;28;20059;-77
2022/07/15 14:49:41;;;;;;;1999.90;999.90;;;;;;;28.87;24.21;99619.06;8287468;28;19925;-77
2022/07/15 14:53:43;;;;;;;1999.90;999.90;;;;;;;28.84;25.19;99611.25;8305468;28;20134;-77
2022/07/15 14:57:44;;;;;;;;;;;;;;;28.97;25.12;99624.59;8284534;28;20069;-77
2022/07/15 15:01:45;;;;;;;1999.90;999.90;;;;;;;28.84;24.31;99621.94;8261168;28;20314;-78
2022/07/15 15:05:48;;;;;;;1999.90;999.90;;;;;;;28.79;24.58;99618.78;8312823;28;20060;-77
2022/07/15 15:09:50;;;;;;;1999.90;999.90;;;;;;;28.89;25.30;99611.78;8277344;28;20045;-77
2022/07/15 15:13:51;;;;;;;;;;;;;;;28.99;24.73;99610.13;8305510;28;20514;-77
2022/07/15 15:17:53;;;;;;;;;;;;;;;28.89;24.29;99612.63;8303585;28;19929;-77
2022/07/15 15:21:54;;;;;;;1999.90;999.90;;;;;;;28.96;25.21;99602.34;8283508;28;19936;-78
2022/07/15 15:30:16;;;;;;;1999.90;999.90;;;;;;;29.12;24.90;99610.03;8290543;28;20059;-77
2022/07/15 15:34:22;;;;;;;1999.90;999.90;;;;;;;29.24;25.16;99593.00;8306841;28;20069;-77
2022/07/15 15:38:23;;;;;;;1999.90;999.90;;;;;;;29.08;24.05;99595.16;8295563;28;20075;-77
2022/07/15 15:42:25;;;;;;;1999.90;999.90;;;;;;;29.09;24.47;99587.06;8272859;28;20137;-77
2022/07/15 15:46:26;;;;;;;1999.90;999.90;;;;;;;29.12;24.68;99597.50;8296327;28;20463;-77
2022/07/15 15:50:28;;;;;;;1999.90;999.90;;;;;;;29.35;25.59;99597.53;8291106;28;20053;-78
2022/07/15 15:54:30;;;;;;;1999.90;999.90;;;;;;;29.46;24.06;99585.03;8293392;28;20067;-78
2022/07/15 15:58:31;;;;;;;1999.90;999.90;;;;;;;29.48;24.61;99607.19;8293351;28;20132;-77
2022/07/15 16:02:33;;;;;;;1999.90;999.90;;;;;;;29.30;25.11;99592.53;8293290;28;20081;-77
2022/07/15 16:06:34;;;;;;;1999.90;999.90;;;;;;;29.22;25.20;99594.94;8311071;28;20068;-78
2022/07/15 16:10:36;;;;;;;1999.90;999.90;;;;;;;29.16;23.62;99592.78;8309561;28;20045;-78
2022/07/15 16:14:37;;;;;;;1999.90;999.90;;;;;;;29.11;23.28;99586.94;8312122;28;20096;-77
2022/07/15 16:18:39;;;;;;;1999.90;999.90;;;;;;;29.03;23.61;99592.00;8287763;28;20458;-77
2022/07/15 16:22:53;;;;;;;1999.90;999.90;;;;;;;28.95;23.65;99591.75;8301085;28;20545;-77
2022/07/15 16:26:55;;;;;;;1999.90;999.90;;;;;;;29.04;23.63;99593.72;8287806;28;20045;-76
2022/07/15 16:30:57;;;;;;;1999.90;999.90;;;;;;;28.84;23.35;99593.38;8282781;28;20699;-77
2022/07/15 16:34:58;;;;;;;1999.90;999.90;;;;;;;28.62;24.12;99582.66;8304503;28;20521;-76
2022/07/15 16:39:00;;;;;;;1999.90;999.90;;;;;;;28.32;24.54;99579.59;8301581;28;20124;-76
2022/07/15 16:43:02;;;;;;;1999.90;999.90;;;;;;;27.83;24.42;99580.50;8297960;28;20038;-76
2022/07/15 16:47:03;;;;;;;1999.90;999.90;;;;;;;27.39;25.02;99576.50;8300115;28;20128;-76
2022/07/15 16:51:05;;;;;;;1999.90;999.90;;;;;;;26.99;25.21;99567.75;8301916;28;20144;-76
2022/07/15 16:55:07;;;;;;;1999.90;999.90;;;;;;;26.74;26.17;99571.22;8285250;28;20421;-77
2022/07/15 16:59:08;;;;;;;1999.90;999.90;;;;;;;26.46;26.59;99580.25;8273304;28;20056;-77
2022/07/15 17:03:10;;;;;;;;;;;;;;;26.20;26.28;99569.47;8299922;28;20045;-77
2022/07/15 17:07:14;;;;;;;1999.90;999.90;;;;;;;25.97;27.60;99571.94;8273935;28;20348;-77
2022/07/15 17:11:15;;;;;;;1999.90;999.90;;;;;;;25.85;27.70;99576.22;8304287;28;20049;-77
2022/07/15 17:15:17;;;;;;;1999.90;999.90;;;;;;;25.66;27.56;99584.50;8282510;28;20052;-77
2022/07/15 17:19:20;;;;;;;1999.90;999.90;;;;;;;25.52;28.22;99581.88;8285812;28;20092;-78
2022/07/15 17:23:22;;;;;;;1999.90;999.90;;;;;;;25.41;28.01;99571.06;8299695;28;20061;-77
2022/07/15 17:27:24;;;;;;;1999.90;999.90;;;;;;;25.29;29.09;99570.00;8288969;28;20065;-77
2022/07/15 17:31:25;;;;;;;1999.90;999.90;;;;;;;25.07;29.26;99577.59;8286790;28;20086;-77
2022/07/15 17:35:28;;;;;;;1999.90;999.90;;;;;;;24.99;29.28;99580.69;8301807;28;20065;-77
2022/07/15 17:39:30;;;;;;;1999.90;999.90;;;;;;;24.85;29.37;99593.94;8281716;28;20042;-77
2022/07/15 17:43:31;;;;;;;;;;;;;;;24.76;29.59;99587.38;8298301;28;20041;-77
2022/07/15 17:47:33;;;;;;;1999.90;999.90;;;;;;;24.61;29.60;99588.31;8276945;28;19926;-77
2022/07/15 17:51:34;;;;;;;1999.90;999.90;;;;;;;24.50;30.41;99585.41;8282554;28;20052;-77
2022/07/15 17:55:36;;;;;;;1999.90;999.90;;;;;;;24.35;31.40;99590.66;8282140;28;20076;-77
2022/07/15 17:59:39;;;;;;;1999.90;999.90;;;;;;;24.26;30.71;99590.31;8283811;28;20096;-77
2022/07/15 18:03:40;;;;;;;1999.90;999.90;;;;;;;24.07;32.31;99593.16;8277722;28;20041;-77
2022/07/15 18:07:41;;;;;;;1999.90;999.90;;;;;;;23.99;30.05;99588.28;8301707;28;20148;-77
2022/07/15 18:11:43;;;;;;;1999.90;999.90;;;;;;;23.89;31.87;99583.59;8290842;28;20065;-77
2022/07/15 18:15:45;;;;;;;1999.90;999.90;;;;;;;23.75;33.03;99593.16;8281007;28;20052;-77
2022/07/15 18:19:46;;;;;;;1999.90;999.90;;;;;;;23.57;33.36;99596.81;8302648;28;20140;-77
2022/07/15 18:23:48;;;;;;;1999.90;999.90;;;;;;;23.40;33.36;99602.13;8288202;28;20053;-77
2022/07/15 18:27:49;;;;;;;1999.90;999.90;;;;;;;23.19;34.60;99596.19;8288596;28;20124;-76
2022/07/15 18:31:51;;;;;;;1999.90;999.90;;;;;;;22.97;35.66;99592.94;8301002;28;20494;-77